PWSweather.com
Personal Weather Stations
Station Observations
J24K28P63
Vysocina, PocatkyCZ 39464

VysocinaPocatkyCZ 39464

Lat: 49.2594238, Lon: 15.2331769

Elevation: 2011

Station Type: Vantage Pro2+

http://meteo-jirkalina.com

High Low Average
Temperature 60.2°F15.7°C 50.7°F10.4°C 56.4°F13.6°C
Dew Point 59.9°F15.5°C 48.7°F9.3°C 55.3°F12.9°C
Winds 10.0 mph 16.1 kmh Calm Calm 4.0 mph SSW6.4 kmh SSW
Wind Gusts 15.0 mph24.1 kmh -- 7.0 mph11.3 kmh
Humidity 100% 83% 96%
Pressure 30.02 in1016.6 mb 29.75 in1007.5 mb -
Precipitation 0.29 in7.4 mm - -
Hour Temp Dew Point Humidity Winds Wind Gusts Pressure Precip Precip Rate Daily Precip Total
12:00 AM 57.8°F14.3°C 52.7°F11.5°C 83% 6.3 mph SSE10.1 kmh SSE 15.0 mph24.1 kmh 29.80 in1009.1 mb - 0.00 in0.0 mm 0.00 in0.0 mm
12:30 AM 57.5°F14.2°C 52.7°F11.5°C 84% 8.1 mph SE13.0 kmh SE 11.0 mph17.7 kmh 29.79 in1008.8 mb - 0.00 in0.0 mm 0.00 in0.0 mm
01:00 AM 56.9°F13.8°C 53.7°F12.1°C 89% 3.7 mph SE6.0 kmh SE 10.0 mph16.1 kmh 29.78 in1008.5 mb - 0.02 in0.5 mm 0.02 in0.5 mm
01:30 AM 56.2°F13.4°C 53.9°F12.2°C 92% 6.7 mph SE10.8 kmh SE 10.0 mph16.1 kmh 29.78 in1008.5 mb - 0.03 in0.8 mm 0.06 in1.5 mm
02:00 AM 55.9°F13.3°C 53.9°F12.2°C 93% 7.1 mph SSE11.4 kmh SSE 11.0 mph17.7 kmh 29.78 in1008.5 mb - 0.01 in0.3 mm 0.06 in1.5 mm
02:30 AM 55.7°F13.2°C 54.0°F12.2°C 94% 5.3 mph ESE8.5 kmh ESE 12.0 mph19.3 kmh 29.77 in1008.1 mb - 0.01 in0.3 mm 0.07 in1.8 mm
03:00 AM 55.9°F13.3°C 54.2°F12.3°C 94% 7.0 mph ESE11.3 kmh ESE 12.0 mph19.3 kmh 29.76 in1007.8 mb - 0.01 in0.3 mm 0.07 in1.8 mm
03:30 AM 55.7°F13.2°C 54.0°F12.2°C 94% 5.6 mph ESE9.0 kmh ESE 10.0 mph16.1 kmh 29.76 in1007.8 mb - 0.00 in0.0 mm 0.07 in1.8 mm
04:00 AM 55.6°F13.1°C 53.9°F12.2°C 94% 7.7 mph ESE12.4 kmh ESE 12.0 mph19.3 kmh 29.75 in1007.5 mb - 0.00 in0.0 mm 0.07 in1.8 mm
04:30 AM 55.4°F13.0°C 53.7°F12.1°C 94% 8.5 mph E13.7 kmh E 11.0 mph17.7 kmh 29.76 in1007.8 mb - 0.00 in0.0 mm 0.07 in1.8 mm
05:00 AM 55.3°F12.9°C 53.3°F11.8°C 93% 6.8 mph ESE10.9 kmh ESE 10.0 mph16.1 kmh 29.76 in1007.8 mb - 0.00 in0.0 mm 0.07 in1.8 mm
05:30 AM 55.3°F12.9°C 53.3°F11.8°C 93% 10.0 mph SE16.1 kmh SE 15.0 mph24.1 kmh 29.76 in1007.8 mb - 0.01 in0.3 mm 0.08 in2.0 mm
06:00 AM 55.4°F13.0°C 53.4°F11.9°C 93% 5.4 mph SE8.7 kmh SE 11.0 mph17.7 kmh 29.75 in1007.5 mb - 0.00 in0.0 mm 0.08 in2.0 mm
06:10 AM 57.4°F14.1°C 57.2°F14.0°C 99% Calm Calm 2.0 mph3.2 kmh 29.82 in1009.8 mb - 0.01 in0.3 mm 0.08 in2.0 mm
06:20 AM 57.6°F14.2°C 57.3°F14.1°C 99% 1.0 mph E1.6 kmh E 3.0 mph4.8 kmh 29.82 in1009.8 mb - 0.00 in0.0 mm 0.08 in2.0 mm
06:30 AM 57.7°F14.3°C 57.4°F14.1°C 99% Calm Calm 2.0 mph3.2 kmh 29.82 in1009.8 mb - 0.00 in0.0 mm 0.08 in2.0 mm
06:40 AM 57.8°F14.3°C 57.5°F14.2°C 99% 2.0 mph E3.2 kmh E 3.0 mph4.8 kmh 29.83 in1010.2 mb - 0.01 in0.3 mm 0.09 in2.3 mm
06:50 AM 57.9°F14.4°C 57.6°F14.2°C 99% 1.0 mph E1.6 kmh E 2.0 mph3.2 kmh 29.83 in1010.2 mb - 0.01 in0.3 mm 0.09 in2.3 mm
07:00 AM 58.3°F14.6°C 58.0°F14.4°C 99% 1.0 mph E1.6 kmh E 2.0 mph3.2 kmh 29.83 in1010.2 mb - 0.01 in0.3 mm 0.10 in2.5 mm
07:10 AM 58.4°F14.7°C 58.1°F14.5°C 99% 1.0 mph E1.6 kmh E 3.0 mph4.8 kmh 29.83 in1010.2 mb - 0.00 in0.0 mm 0.10 in2.5 mm
07:20 AM 58.5°F14.7°C 58.2°F14.6°C 99% Calm Calm 1.0 mph1.6 kmh 29.83 in1010.2 mb - 0.00 in0.0 mm 0.10 in2.5 mm
07:30 AM 58.8°F14.9°C 58.5°F14.7°C 99% Calm Calm -- 29.83 in1010.2 mb - 0.00 in0.0 mm 0.10 in2.5 mm
07:40 AM 59.0°F15.0°C 58.7°F14.8°C 99% 1.0 mph E1.6 kmh E 2.0 mph3.2 kmh 29.83 in1010.2 mb - 0.00 in0.0 mm 0.10 in2.5 mm
07:50 AM 59.5°F15.3°C 59.2°F15.1°C 99% 1.0 mph E1.6 kmh E 3.0 mph4.8 kmh 29.83 in1010.2 mb - 0.00 in0.0 mm 0.10 in2.5 mm
08:00 AM 59.6°F15.3°C 59.3°F15.2°C 99% Calm Calm 1.0 mph1.6 kmh 29.83 in1010.2 mb - 0.00 in0.0 mm 0.10 in2.5 mm
08:10 AM 59.8°F15.4°C 59.5°F15.3°C 99% Calm Calm 1.0 mph1.6 kmh 29.83 in1010.2 mb - 0.00 in0.0 mm 0.10 in2.5 mm
08:20 AM 59.8°F15.4°C 59.5°F15.3°C 99% Calm Calm -- 29.83 in1010.2 mb - 0.00 in0.0 mm 0.10 in2.5 mm
08:30 AM 59.9°F15.5°C 59.7°F15.4°C 99% Calm Calm 1.0 mph1.6 kmh 29.83 in1010.2 mb - 0.00 in0.0 mm 0.10 in2.5 mm
08:40 AM 60.0°F15.6°C 59.7°F15.4°C 99% 2.0 mph E3.2 kmh E 3.0 mph4.8 kmh 29.83 in1010.2 mb - 0.00 in0.0 mm 0.10 in2.5 mm
08:50 AM 59.8°F15.4°C 59.5°F15.3°C 99% 2.0 mph E3.2 kmh E 3.0 mph4.8 kmh 29.83 in1010.2 mb - 0.00 in0.0 mm 0.10 in2.5 mm
09:00 AM 59.7°F15.4°C 59.4°F15.2°C 99% 2.0 mph E3.2 kmh E 3.0 mph4.8 kmh 29.83 in1010.2 mb - 0.00 in0.0 mm 0.10 in2.5 mm
09:10 AM 60.2°F15.7°C 59.9°F15.5°C 99% 2.0 mph E3.2 kmh E 3.0 mph4.8 kmh 29.83 in1010.2 mb - 0.00 in0.0 mm 0.10 in2.5 mm
09:20 AM 60.2°F15.7°C 59.9°F15.5°C 99% 2.0 mph E3.2 kmh E 6.0 mph9.7 kmh 29.83 in1010.2 mb - 0.00 in0.0 mm 0.10 in2.5 mm
09:30 AM 60.1°F15.6°C 59.5°F15.3°C 98% 1.0 mph E1.6 kmh E 2.0 mph3.2 kmh 29.83 in1010.2 mb - 0.00 in0.0 mm 0.10 in2.5 mm
09:40 AM 60.2°F15.7°C 59.6°F15.3°C 98% Calm Calm 3.0 mph4.8 kmh 29.83 in1010.2 mb - 0.00 in0.0 mm 0.10 in2.5 mm
09:50 AM 60.0°F15.6°C 59.4°F15.2°C 98% 2.0 mph E3.2 kmh E 2.0 mph3.2 kmh 29.83 in1010.2 mb - 0.00 in0.0 mm 0.10 in2.5 mm
10:00 AM 59.7°F15.4°C 59.1°F15.1°C 98% Calm Calm -- 29.83 in1010.2 mb - 0.00 in0.0 mm 0.10 in2.5 mm
10:10 AM 59.6°F15.3°C 59.0°F15.0°C 98% 1.0 mph E1.6 kmh E 3.0 mph4.8 kmh 29.83 in1010.2 mb - 0.00 in0.0 mm 0.10 in2.5 mm
10:20 AM 59.8°F15.4°C 59.2°F15.1°C 98% Calm Calm 1.0 mph1.6 kmh 29.83 in1010.2 mb - 0.00 in0.0 mm 0.10 in2.5 mm
10:30 AM 59.7°F15.4°C 59.1°F15.1°C 98% Calm Calm -- 29.84 in1010.5 mb - 0.00 in0.0 mm 0.10 in2.5 mm
10:40 AM 59.5°F15.3°C 58.9°F14.9°C 98% Calm Calm -- 29.84 in1010.5 mb - 0.00 in0.0 mm 0.10 in2.5 mm
10:50 AM 59.6°F15.3°C 59.0°F15.0°C 98% Calm Calm -- 29.84 in1010.5 mb - 0.00 in0.0 mm 0.10 in2.5 mm
11:00 AM 59.6°F15.3°C 59.0°F15.0°C 98% 2.0 mph SE3.2 kmh SE 7.0 mph11.3 kmh 29.84 in1010.5 mb - 0.02 in0.5 mm 0.12 in3.0 mm
11:10 AM 58.6°F14.8°C 58.0°F14.4°C 98% 5.0 mph WSW8.0 kmh WSW 7.0 mph11.3 kmh 29.84 in1010.5 mb - 0.02 in0.5 mm 0.13 in3.3 mm
11:20 AM 57.7°F14.3°C 57.1°F13.9°C 98% 6.0 mph W9.7 kmh W 8.0 mph12.9 kmh 29.84 in1010.5 mb - 0.02 in0.5 mm 0.14 in3.6 mm
11:30 AM 57.3°F14.1°C 56.7°F13.7°C 98% 5.0 mph W8.0 kmh W 8.0 mph12.9 kmh 29.84 in1010.5 mb - 0.01 in0.3 mm 0.15 in3.8 mm
11:40 AM 57.0°F13.9°C 56.4°F13.6°C 98% 7.0 mph WSW11.3 kmh WSW 12.0 mph19.3 kmh 29.85 in1010.8 mb - 0.02 in0.5 mm 0.17 in4.3 mm
11:50 AM 56.1°F13.4°C 55.6°F13.1°C 98% 10.0 mph WNW16.1 kmh WNW 14.0 mph22.5 kmh 29.85 in1010.8 mb - 0.02 in0.5 mm 0.17 in4.3 mm
12:00 PM 55.8°F13.2°C 55.2°F12.9°C 98% 8.0 mph WNW12.9 kmh WNW 10.0 mph16.1 kmh 29.84 in1010.5 mb - 0.01 in0.3 mm 0.18 in4.6 mm
12:10 PM 55.7°F13.2°C 55.4°F13.0°C 99% 8.0 mph NW12.9 kmh NW 10.0 mph16.1 kmh 29.84 in1010.5 mb - 0.01 in0.3 mm 0.19 in4.8 mm
12:20 PM 55.7°F13.2°C 55.4°F13.0°C 99% 7.0 mph WNW11.3 kmh WNW 8.0 mph12.9 kmh 29.85 in1010.8 mb - 0.00 in0.0 mm 0.19 in4.8 mm
12:30 PM 55.4°F13.0°C 55.1°F12.8°C 99% 8.0 mph WNW12.9 kmh WNW 12.0 mph19.3 kmh 29.86 in1011.2 mb - 0.00 in0.0 mm 0.19 in4.8 mm
12:40 PM 55.4°F13.0°C 55.1°F12.8°C 99% 6.0 mph WNW9.7 kmh WNW 9.0 mph14.5 kmh 29.86 in1011.2 mb - 0.01 in0.3 mm 0.20 in5.1 mm
12:50 PM 55.2°F12.9°C 54.9°F12.7°C 99% 6.0 mph W9.7 kmh W 9.0 mph14.5 kmh 29.86 in1011.2 mb - 0.01 in0.3 mm 0.20 in5.1 mm
01:00 PM 55.2°F12.9°C 54.9°F12.7°C 99% 7.0 mph W11.3 kmh W 9.0 mph14.5 kmh 29.86 in1011.2 mb - 0.00 in0.0 mm 0.20 in5.1 mm
01:10 PM 55.2°F12.9°C 54.9°F12.7°C 99% 9.0 mph WSW14.5 kmh WSW 12.0 mph19.3 kmh 29.87 in1011.5 mb - 0.00 in0.0 mm 0.21 in5.3 mm
01:20 PM 55.1°F12.8°C 54.8°F12.7°C 99% 8.0 mph WSW12.9 kmh WSW 12.0 mph19.3 kmh 29.87 in1011.5 mb - 0.01 in0.3 mm 0.21 in5.3 mm
01:30 PM 55.1°F12.8°C 54.8°F12.7°C 99% 9.0 mph WSW14.5 kmh WSW 12.0 mph19.3 kmh 29.88 in1011.9 mb - 0.03 in0.8 mm 0.24 in6.1 mm
01:40 PM 55.0°F12.8°C 54.7°F12.6°C 99% 9.0 mph WNW14.5 kmh WNW 12.0 mph19.3 kmh 29.88 in1011.9 mb - 0.02 in0.5 mm 0.24 in6.1 mm
01:50 PM 55.0°F12.8°C 54.8°F12.7°C 99% 10.0 mph W16.1 kmh W 13.0 mph20.9 kmh 29.88 in1011.9 mb - 0.01 in0.3 mm 0.25 in6.4 mm
02:00 PM 55.1°F12.8°C 54.9°F12.7°C 99% 8.0 mph W12.9 kmh W 12.0 mph19.3 kmh 29.88 in1011.9 mb - 0.02 in0.5 mm 0.27 in6.9 mm
02:10 PM 55.3°F12.9°C 55.0°F12.8°C 99% 8.0 mph W12.9 kmh W 12.0 mph19.3 kmh 29.89 in1012.2 mb - 0.00 in0.0 mm 0.27 in6.9 mm
02:20 PM 55.2°F12.9°C 55.2°F12.9°C 100% 8.0 mph W12.9 kmh W 12.0 mph19.3 kmh 29.89 in1012.2 mb - 0.01 in0.3 mm 0.28 in7.1 mm
02:30 PM 55.4°F13.0°C 55.4°F13.0°C 100% 9.0 mph W14.5 kmh W 14.0 mph22.5 kmh 29.89 in1012.2 mb - 0.00 in0.0 mm 0.28 in7.1 mm
02:40 PM 55.3°F12.9°C 55.3°F12.9°C 100% 9.0 mph W14.5 kmh W 10.0 mph16.1 kmh 29.89 in1012.2 mb - 0.01 in0.3 mm 0.28 in7.1 mm
02:50 PM 55.2°F12.9°C 55.2°F12.9°C 100% 8.0 mph WSW12.9 kmh WSW 12.0 mph19.3 kmh 29.90 in1012.5 mb - 0.00 in0.0 mm 0.28 in7.1 mm
03:00 PM 55.0°F12.8°C 54.7°F12.6°C 99% 9.0 mph W14.5 kmh W 12.0 mph19.3 kmh 29.90 in1012.5 mb - 0.00 in0.0 mm 0.28 in7.1 mm
03:10 PM 55.1°F12.8°C 54.8°F12.7°C 99% 9.0 mph W14.5 kmh W 10.0 mph16.1 kmh 29.90 in1012.5 mb - 0.00 in0.0 mm 0.28 in7.1 mm
03:20 PM 55.0°F12.8°C 54.7°F12.6°C 99% 9.0 mph W14.5 kmh W 12.0 mph19.3 kmh 29.91 in1012.9 mb - 0.00 in0.0 mm 0.28 in7.1 mm
03:30 PM 55.1°F12.8°C 54.9°F12.7°C 99% 8.0 mph W12.9 kmh W 12.0 mph19.3 kmh 29.91 in1012.9 mb - 0.00 in0.0 mm 0.28 in7.1 mm
03:40 PM 55.6°F13.1°C 55.6°F13.1°C 100% 8.0 mph W12.9 kmh W 12.0 mph19.3 kmh 29.91 in1012.9 mb - 0.01 in0.3 mm 0.29 in7.4 mm
03:50 PM 55.9°F13.3°C 55.9°F13.3°C 100% 7.0 mph WSW11.3 kmh WSW 10.0 mph16.1 kmh 29.92 in1013.2 mb - 0.00 in0.0 mm 0.29 in7.4 mm
04:00 PM 55.7°F13.2°C 55.7°F13.2°C 100% 7.0 mph W11.3 kmh W 10.0 mph16.1 kmh 29.92 in1013.2 mb - 0.00 in0.0 mm 0.29 in7.4 mm
04:10 PM 55.9°F13.3°C 55.9°F13.3°C 100% 5.0 mph WSW8.0 kmh WSW 10.0 mph16.1 kmh 29.92 in1013.2 mb - 0.00 in0.0 mm 0.29 in7.4 mm
04:20 PM 56.3°F13.5°C 56.3°F13.5°C 100% 6.0 mph W9.7 kmh W 9.0 mph14.5 kmh 29.93 in1013.5 mb - 0.00 in0.0 mm 0.29 in7.4 mm
04:30 PM 56.1°F13.4°C 56.1°F13.4°C 100% 10.0 mph W16.1 kmh W 14.0 mph22.5 kmh 29.93 in1013.5 mb - 0.00 in0.0 mm 0.29 in7.4 mm
04:40 PM 56.0°F13.3°C 56.0°F13.3°C 100% 9.0 mph WSW14.5 kmh WSW 12.0 mph19.3 kmh 29.93 in1013.5 mb - 0.00 in0.0 mm 0.29 in7.4 mm
04:50 PM 56.1°F13.4°C 56.1°F13.4°C 100% 8.0 mph W12.9 kmh W 12.0 mph19.3 kmh 29.93 in1013.5 mb - 0.00 in0.0 mm 0.29 in7.4 mm
05:00 PM 56.2°F13.4°C 56.2°F13.4°C 100% 6.0 mph WSW9.7 kmh WSW 8.0 mph12.9 kmh 29.93 in1013.5 mb - 0.00 in0.0 mm 0.29 in7.4 mm
05:10 PM 56.2°F13.4°C 56.2°F13.4°C 100% 6.0 mph W9.7 kmh W 8.0 mph12.9 kmh 29.94 in1013.9 mb - 0.00 in0.0 mm 0.29 in7.4 mm
05:20 PM 56.0°F13.3°C 56.0°F13.3°C 100% 8.0 mph WSW12.9 kmh WSW 10.0 mph16.1 kmh 29.95 in1014.2 mb - 0.00 in0.0 mm 0.29 in7.4 mm
05:30 PM 55.8°F13.2°C 55.8°F13.2°C 100% 6.0 mph WSW9.7 kmh WSW 7.0 mph11.3 kmh 29.95 in1014.2 mb - 0.00 in0.0 mm 0.29 in7.4 mm
05:40 PM 55.5°F13.1°C 55.2°F12.9°C 99% 5.0 mph WSW8.0 kmh WSW 7.0 mph11.3 kmh 29.96 in1014.6 mb - 0.00 in0.0 mm 0.29 in7.4 mm
05:50 PM 55.4°F13.0°C 55.4°F13.0°C 100% 5.0 mph WSW8.0 kmh WSW 9.0 mph14.5 kmh 29.96 in1014.6 mb - 0.00 in0.0 mm 0.29 in7.4 mm
06:00 PM 53.9°F12.2°C 51.6°F10.9°C 92% 0.3 mph W0.5 kmh W 1.0 mph1.6 kmh 29.89 in1012.2 mb - 0.00 in0.0 mm 0.14 in3.6 mm
06:30 PM 53.3°F11.8°C 51.3°F10.7°C 93% 0.1 mph W0.2 kmh W 1.0 mph1.6 kmh 29.90 in1012.5 mb - 0.00 in0.0 mm 0.14 in3.6 mm
07:00 PM 53.1°F11.7°C 51.4°F10.8°C 94% Calm Calm 1.0 mph1.6 kmh 29.92 in1013.2 mb - 0.00 in0.0 mm 0.14 in3.6 mm
07:30 PM 52.8°F11.6°C 51.1°F10.6°C 94% 0.4 mph WNW0.6 kmh WNW 1.0 mph1.6 kmh 29.94 in1013.9 mb - 0.00 in0.0 mm 0.14 in3.6 mm
08:00 PM 52.6°F11.4°C 50.6°F10.3°C 93% 1.3 mph WNW2.1 kmh WNW 2.0 mph3.2 kmh 29.95 in1014.2 mb - 0.00 in0.0 mm 0.14 in3.6 mm
08:30 PM 52.5°F11.4°C 50.2°F10.1°C 92% 0.4 mph WNW0.6 kmh WNW 2.0 mph3.2 kmh 29.97 in1014.9 mb - 0.00 in0.0 mm 0.14 in3.6 mm
09:00 PM 52.1°F11.2°C 50.1°F10.1°C 93% 1.8 mph WNW2.9 kmh WNW 3.0 mph4.8 kmh 29.98 in1015.2 mb - 0.00 in0.0 mm 0.14 in3.6 mm
09:30 PM 51.7°F10.9°C 49.5°F9.7°C 92% 0.5 mph WNW0.8 kmh WNW 2.0 mph3.2 kmh 29.98 in1015.2 mb - 0.00 in0.0 mm 0.14 in3.6 mm
10:00 PM 50.7°F10.4°C 48.7°F9.3°C 93% Calm Calm -- 29.99 in1015.6 mb - 0.00 in0.0 mm 0.14 in3.6 mm
10:30 PM 50.7°F10.4°C 49.3°F9.6°C 95% Calm Calm -- 30.00 in1015.9 mb - 0.00 in0.0 mm 0.14 in3.6 mm
11:00 PM 51.0°F10.6°C 49.9°F9.9°C 96% 1.1 mph W1.8 kmh W 3.0 mph4.8 kmh 30.01 in1016.3 mb - 0.00 in0.0 mm 0.40 in10.2 mm
11:30 PM 51.1°F10.6°C 50.0°F10.0°C 96% Calm Calm -- 30.02 in1016.6 mb - 0.00 in0.0 mm 0.40 in10.2 mm